Time;durP1;ratioP1;P1;durP2;ratioP2;P2;SDS_P1;SDS_P2;PMS_P1;PMS_P2;Temp;Humidity;BMP_temperature;BMP_pressure;BME280_temperature;BME280_humidity;BME280_pressure;Samples;Min_cycle;Max_cycle;Signal;HPM_P1;HPM_P2
2023/08/16 00:00:08;;;;;;;5.47;5.07;;;21.20;99.90;;;;;;4971867;28;20195;-70
2023/08/16 00:02:34;;;;;;;5.83;4.60;;;21.20;99.90;;;;;;4970260;28;22088;-70
2023/08/16 00:04:59;;;;;;;4.20;3.90;;;21.30;99.90;;;;;;4972533;28;20514;-70
2023/08/16 00:07:25;;;;;;;5.23;3.77;;;21.40;99.90;;;;;;4973729;28;20176;-70
2023/08/16 00:09:51;;;;;;;4.67;4.27;;;21.40;99.90;;;;;;4970406;28;20582;-70
2023/08/16 00:12:17;;;;;;;4.50;4.20;;;21.40;99.90;;;;;;4968152;28;20176;-70
2023/08/16 00:14:42;;;;;;;5.00;4.60;;;21.40;99.90;;;;;;4971588;28;20442;-70
2023/08/16 00:17:08;;;;;;;5.13;4.63;;;21.50;99.90;;;;;;4972291;28;20180;-70
2023/08/16 00:19:33;;;;;;;7.07;4.77;;;21.50;99.90;;;;;;4973758;28;20215;-70
2023/08/16 00:21:59;;;;;;;5.23;4.17;;;21.50;99.90;;;;;;4974435;28;20185;-70
2023/08/16 00:24:24;;;;;;;5.07;4.43;;;21.50;99.90;;;;;;4970265;28;20184;-70
2023/08/16 00:26:50;;;;;;;7.73;5.40;;;21.50;99.90;;;;;;4973842;28;20187;-69
2023/08/16 00:29:15;;;;;;;4.80;4.50;;;21.60;99.90;;;;;;4972849;28;20241;-69
2023/08/16 00:31:41;;;;;;;5.50;4.97;;;21.50;99.90;;;;;;4973265;28;20693;-70
2023/08/16 00:34:06;;;;;;;6.07;5.57;;;21.40;99.90;;;;;;4973264;28;20192;-70
2023/08/16 00:36:32;;;;;;;5.03;4.63;;;21.20;99.90;;;;;;4974989;28;20223;-70
2023/08/16 00:38:57;;;;;;;5.50;5.00;;;21.10;99.90;;;;;;4971696;28;20228;-70
2023/08/16 00:41:23;;;;;;;5.87;5.37;;;21.00;99.90;;;;;;4974883;28;20613;-70
2023/08/16 00:43:48;;;;;;;6.10;5.60;;;20.90;99.90;;;;;;4974049;28;20172;-70
2023/08/16 00:46:14;;;;;;;5.87;5.27;;;20.90;99.90;;;;;;4972049;28;20211;-69
2023/08/16 00:48:43;;;;;;;6.37;5.80;;;20.90;99.90;;;;;;4970886;28;20191;-69
2023/08/16 00:51:09;;;;;;;6.13;5.67;;;20.90;99.90;;;;;;4964977;28;20196;-69
2023/08/16 00:53:37;;;;;;;7.60;5.80;;;20.80;99.90;;;;;;4968048;28;20875;-69
2023/08/16 00:56:04;;;;;;;6.33;4.87;;;20.80;99.90;;;;;;4971827;28;20944;-69
2023/08/16 00:58:30;;;;;;;9.60;5.60;;;20.70;99.90;;;;;;4972393;28;20557;-69
2023/08/16 01:00:56;;;;;;;5.80;5.37;;;20.70;99.90;;;;;;4972003;28;20538;-69
2023/08/16 01:03:21;;;;;;;5.90;5.40;;;20.70;99.90;;;;;;4972123;28;20436;-69
2023/08/16 01:05:47;;;;;;;5.90;5.40;;;20.80;99.90;;;;;;4966354;28;20204;-70
2023/08/16 01:08:12;;;;;;;6.43;5.27;;;20.80;99.90;;;;;;4972847;28;20660;-70
2023/08/16 01:11:12;;;;;;;5.37;4.87;;;20.80;99.90;;;;;;4971644;28;20220;-70
2023/08/16 01:13:53;;;;;;;5.47;4.97;;;20.80;99.90;;;;;;4968880;28;20184;-70
2023/08/16 01:16:21;;;;;;;6.10;5.60;;;20.80;99.90;;;;;;4967001;28;20436;-70
2023/08/16 01:18:48;;;;;;;5.90;5.50;;;20.80;99.90;;;;;;4972626;28;20526;-70
2023/08/16 01:21:15;;;;;;;5.93;4.97;;;20.70;99.90;;;;;;4973921;28;20439;-70
2023/08/16 01:23:45;;;;;;;5.27;4.77;;;20.70;99.90;;;;;;4972656;28;20872;-70
2023/08/16 01:26:26;;;;;;;6.10;5.50;;;20.70;99.90;;;;;;4973315;28;20975;-70
2023/08/16 01:28:52;;;;;;;5.60;5.20;;;20.60;99.90;;;;;;4973491;28;20477;-70
2023/08/16 01:31:18;;;;;;;9.33;6.67;;;20.60;99.90;;;;;;4973297;28;20459;-70
2023/08/16 01:33:44;;;;;;;5.67;5.20;;;20.60;99.90;;;;;;4971784;28;20487;-70
2023/08/16 01:36:09;;;;;;;5.53;5.13;;;20.60;99.90;;;;;;4972298;28;20208;-70
2023/08/16 01:38:35;;;;;;;6.07;5.50;;;20.60;99.90;;;;;;4972333;28;20471;-70
2023/08/16 01:41:08;;;;;;;5.60;5.20;;;20.60;99.90;;;;;;4973620;28;20211;-70
2023/08/16 01:43:34;;;;;;;6.47;5.53;;;20.60;99.90;;;;;;4971669;28;20669;-70
2023/08/16 01:46:02;;;;;;;5.67;5.27;;;20.60;99.90;;;;;;4978339;28;20785;-70
2023/08/16 01:48:28;;;;;;;5.03;4.70;;;20.60;99.90;;;;;;4968038;28;20509;-70
2023/08/16 01:50:54;;;;;;;7.10;6.40;;;20.50;99.90;;;;;;4972400;28;20487;-70
2023/08/16 01:53:20;;;;;;;6.40;5.80;;;20.50;99.90;;;;;;4968129;28;20518;-70
2023/08/16 01:55:45;;;;;;;6.17;5.63;;;20.50;99.90;;;;;;4971519;28;20193;-70
2023/08/16 01:58:11;;;;;;;6.93;5.67;;;20.50;99.90;;;;;;4972117;28;20236;-70
2023/08/16 02:00:36;;;;;;;6.80;6.33;;;20.40;99.90;;;;;;4972426;28;20619;-70
2023/08/16 02:03:02;;;;;;;6.50;6.00;;;20.40;99.90;;;;;;4970796;28;20223;-70
2023/08/16 02:05:28;;;;;;;7.53;7.00;;;20.40;99.90;;;;;;4970801;28;20183;-70
2023/08/16 02:07:53;;;;;;;6.63;5.77;;;20.40;99.90;;;;;;4971397;28;20439;-70
2023/08/16 02:10:19;;;;;;;7.10;6.50;;;20.40;99.90;;;;;;4970711;28;20678;-70
2023/08/16 02:12:45;;;;;;;6.97;6.27;;;20.30;99.90;;;;;;4972952;28;20191;-70
2023/08/16 02:15:11;;;;;;;7.13;6.53;;;20.30;99.90;;;;;;4968170;28;20199;-70
2023/08/16 02:17:36;;;;;;;6.30;5.80;;;20.30;99.90;;;;;;4970352;28;20209;-70
2023/08/16 02:20:04;;;;;;;6.60;6.00;;;20.20;99.90;;;;;;4970093;28;20822;-70
2023/08/16 02:22:29;;;;;;;7.20;6.60;;;20.20;99.90;;;;;;4956015;28;20664;-70
2023/08/16 02:24:54;;;;;;;7.53;6.83;;;20.20;99.90;;;;;;4972170;28;20439;-70
2023/08/16 02:27:20;;;;;;;7.67;6.90;;;20.20;99.90;;;;;;4968475;28;20193;-70
2023/08/16 02:29:46;;;;;;;7.33;6.10;;;20.20;99.90;;;;;;4970089;28;20544;-70
2023/08/16 02:32:11;;;;;;;6.30;5.90;;;20.20;99.90;;;;;;4971659;28;20179;-70
2023/08/16 02:34:37;;;;;;;7.17;6.50;;;20.20;99.90;;;;;;4971317;28;20180;-70
2023/08/16 02:37:02;;;;;;;6.60;6.10;;;20.10;99.90;;;;;;4972180;28;20180;-70
2023/08/16 02:39:28;;;;;;;7.40;6.90;;;20.20;99.90;;;;;;4970209;28;20713;-70
2023/08/16 02:41:54;;;;;;;6.77;6.00;;;20.20;99.90;;;;;;4971904;28;20198;-70
2023/08/16 02:44:19;;;;;;;7.00;6.50;;;20.20;99.90;;;;;;4970569;28;20176;-70
2023/08/16 02:46:45;;;;;;;6.50;6.00;;;20.20;99.90;;;;;;4970694;28;20483;-70
2023/08/16 02:49:10;;;;;;;6.90;6.40;;;20.00;99.90;;;;;;4946408;28;20200;-70
2023/08/16 02:51:36;;;;;;;7.50;6.40;;;20.10;99.90;;;;;;4952823;28;20208;-71
2023/08/16 02:54:01;;;;;;;7.10;6.60;;;20.00;99.90;;;;;;4967948;28;20635;-70
2023/08/16 02:56:27;;;;;;;8.50;7.77;;;19.90;99.90;;;;;;4969890;28;20210;-70
2023/08/16 02:58:53;;;;;;;7.23;6.53;;;20.00;99.90;;;;;;4970470;28;20222;-70
2023/08/16 03:01:19;;;;;;;6.70;6.20;;;20.00;99.90;;;;;;4968664;28;20172;-70
2023/08/16 03:03:46;;;;;;;7.43;6.83;;;20.00;99.90;;;;;;4969916;28;20447;-70
2023/08/16 03:06:11;;;;;;;7.60;7.00;;;20.00;99.90;;;;;;4970302;28;20177;-70
2023/08/16 03:08:37;;;;;;;7.50;6.90;;;20.00;99.90;;;;;;4951793;28;20438;-70
2023/08/16 03:11:02;;;;;;;6.90;6.30;;;19.90;99.90;;;;;;4969253;28;20401;-70
2023/08/16 03:13:28;;;;;;;7.63;7.03;;;19.90;99.90;;;;;;4968316;28;20184;-70
2023/08/16 03:15:53;;;;;;;7.50;6.80;;;19.90;99.90;;;;;;4970166;28;20561;-70
2023/08/16 03:18:19;;;;;;;7.70;7.07;;;19.90;99.90;;;;;;4969282;28;20211;-70
2023/08/16 03:20:44;;;;;;;8.00;7.13;;;19.90;99.90;;;;;;4966628;28;20247;-70
2023/08/16 03:23:10;;;;;;;6.97;6.30;;;19.90;99.90;;;;;;4969731;28;20184;-70
2023/08/16 03:25:36;;;;;;;8.70;8.10;;;19.90;99.90;;;;;;4967874;28;20195;-70
2023/08/16 03:28:01;;;;;;;7.20;6.60;;;19.80;99.90;;;;;;4953458;28;20192;-70
2023/08/16 03:30:27;;;;;;;6.47;5.93;;;19.80;99.90;;;;;;4968695;28;20208;-70
2023/08/16 03:32:53;;;;;;;6.83;6.17;;;19.80;99.90;;;;;;4967525;28;20263;-70
2023/08/16 03:35:19;;;;;;;7.00;6.40;;;19.80;99.90;;;;;;4951883;28;22014;-70
2023/08/16 03:37:44;;;;;;;7.77;7.23;;;19.80;99.90;;;;;;4970209;28;20475;-70
2023/08/16 03:40:10;;;;;;;7.10;6.60;;;19.70;99.90;;;;;;4969470;28;20809;-70
2023/08/16 03:42:36;;;;;;;7.70;7.10;;;19.70;99.90;;;;;;4967907;28;20184;-70
2023/08/16 03:45:02;;;;;;;7.77;7.17;;;19.60;99.90;;;;;;4970473;28;20619;-71
2023/08/16 03:47:29;;;;;;;6.90;6.40;;;19.70;99.90;;;;;;4969968;28;20184;-70
2023/08/16 03:49:55;;;;;;;7.53;6.83;;;19.70;99.90;;;;;;4969273;28;20463;-70
2023/08/16 03:52:21;;;;;;;6.73;6.13;;;19.70;99.90;;;;;;4968423;28;20953;-70
2023/08/16 03:54:47;;;;;;;7.73;6.77;;;19.70;99.90;;;;;;4967717;28;20474;-70
2023/08/16 03:57:12;;;;;;;6.73;6.20;;;19.60;99.90;;;;;;4969463;28;20267;-70
2023/08/16 03:59:38;;;;;;;7.30;6.60;;;19.60;99.90;;;;;;4969589;28;20224;-70
2023/08/16 04:02:03;;;;;;;7.07;6.37;;;19.50;99.90;;;;;;4967906;28;20196;-70
2023/08/16 04:04:29;;;;;;;7.83;7.20;;;19.60;99.90;;;;;;4973786;28;20184;-70
2023/08/16 04:06:55;;;;;;;6.63;6.00;;;19.60;99.90;;;;;;4982811;28;20195;-70
2023/08/16 04:09:20;;;;;;;7.10;6.50;;;19.60;99.90;;;;;;4979532;28;20223;-70
2023/08/16 04:11:46;;;;;;;6.20;5.67;;;19.60;99.90;;;;;;4980900;28;20184;-70
2023/08/16 04:14:11;;;;;;;6.90;6.20;;;19.60;99.90;;;;;;4975466;28;20556;-70
2023/08/16 04:16:36;;;;;;;6.30;5.70;;;19.60;99.90;;;;;;4975146;28;20199;-70
2023/08/16 04:19:02;;;;;;;6.40;5.90;;;19.70;99.90;;;;;;4974265;28;20224;-70
2023/08/16 04:21:28;;;;;;;7.23;6.53;;;19.70;99.90;;;;;;4970960;28;20556;-70
2023/08/16 04:23:53;;;;;;;7.17;6.40;;;19.70;99.90;;;;;;4968348;28;20220;-70
2023/08/16 04:26:19;;;;;;;7.30;6.70;;;19.70;99.90;;;;;;4958362;28;20259;-70
2023/08/16 04:28:44;;;;;;;6.67;6.17;;;19.70;99.90;;;;;;4969447;28;20184;-70
2023/08/16 04:31:10;;;;;;;6.87;6.40;;;19.60;99.90;;;;;;4973918;28;20183;-70
2023/08/16 04:33:35;;;;;;;9.87;6.73;;;19.70;99.90;;;;;;4970677;28;20227;-70
2023/08/16 04:36:01;;;;;;;7.80;6.60;;;19.70;99.90;;;;;;4973601;28;20642;-70
2023/08/16 04:38:26;;;;;;;7.83;7.30;;;19.70;99.90;;;;;;4971703;28;20204;-70
2023/08/16 04:40:52;;;;;;;6.40;5.80;;;19.70;99.90;;;;;;4973176;28;20200;-70
2023/08/16 04:43:19;;;;;;;6.70;6.20;;;19.70;99.90;;;;;;4973242;28;20172;-70
2023/08/16 04:45:45;;;;;;;6.50;6.10;;;19.80;99.90;;;;;;4972109;28;20467;-70
2023/08/16 04:48:11;;;;;;;6.63;6.13;;;19.80;99.90;;;;;;4972428;28;20450;-70
2023/08/16 04:50:36;;;;;;;6.37;5.87;;;19.90;99.90;;;;;;4970012;28;20471;-70
2023/08/16 04:53:02;;;;;;;6.17;5.67;;;19.90;99.90;;;;;;4968904;28;20553;-70
2023/08/16 04:55:28;;;;;;;7.40;6.80;;;19.90;99.90;;;;;;4972451;28;20203;-70
2023/08/16 04:57:54;;;;;;;7.27;6.27;;;19.90;99.90;;;;;;4964940;28;20456;-70
2023/08/16 05:00:20;;;;;;;6.80;6.30;;;20.00;99.90;;;;;;4972156;28;20214;-70
2023/08/16 05:02:45;;;;;;;7.37;6.87;;;20.00;99.90;;;;;;4955920;28;20191;-70
2023/08/16 05:05:11;;;;;;;7.97;7.23;;;20.10;99.90;;;;;;4972440;28;20458;-70
2023/08/16 05:07:37;;;;;;;6.80;6.10;;;20.20;99.90;;;;;;4972770;28;20666;-70
2023/08/16 05:10:03;;;;;;;6.03;5.30;;;20.50;99.90;;;;;;4972165;28;20713;-70
2023/08/16 05:12:28;;;;;;;6.23;5.63;;;20.30;99.90;;;;;;4969593;28;20263;-70
2023/08/16 05:14:54;;;;;;;6.00;5.50;;;20.60;99.90;;;;;;4972570;28;20510;-70
2023/08/16 05:17:19;;;;;;;6.40;5.90;;;20.60;99.90;;;;;;4972519;28;20364;-70
2023/08/16 05:19:45;;;;;;;6.37;5.87;;;20.80;99.90;;;;;;4971595;28;20635;-70
2023/08/16 05:22:10;;;;;;;6.53;6.03;;;20.90;99.90;;;;;;4973085;28;20674;-70
2023/08/16 05:24:36;;;;;;;6.23;5.63;;;20.90;99.90;;;;;;4974307;28;20179;-70
2023/08/16 05:27:02;;;;;;;6.33;5.67;;;21.00;99.90;;;;;;4973153;28;20180;-70
2023/08/16 05:29:27;;;;;;;6.57;6.07;;;21.10;99.90;;;;;;4970983;28;20200;-70
2023/08/16 05:31:53;;;;;;;6.30;5.60;;;21.20;99.90;;;;;;4971800;28;20627;-70
2023/08/16 05:34:20;;;;;;;6.37;5.80;;;21.40;99.90;;;;;;4970404;28;20196;-70
2023/08/16 05:36:47;;;;;;;5.20;4.80;;;21.50;99.90;;;;;;4972541;28;20219;-70
2023/08/16 05:39:13;;;;;;;7.70;6.23;;;21.70;99.90;;;;;;4971393;28;21003;-69
2023/08/16 05:41:39;;;;;;;6.83;6.23;;;21.80;99.90;;;;;;4970577;28;20446;-70
2023/08/16 05:44:04;;;;;;;6.80;6.10;;;21.80;99.90;;;;;;4972884;28;20527;-70
2023/08/16 05:46:30;;;;;;;7.00;6.50;;;22.00;99.90;;;;;;4972684;28;20172;-70
2023/08/16 05:48:56;;;;;;;5.27;4.87;;;22.10;99.90;;;;;;4969429;28;20668;-70
2023/08/16 05:51:21;;;;;;;10.33;5.70;;;22.20;99.90;;;;;;4969813;28;20212;-70
2023/08/16 05:53:46;;;;;;;7.20;6.70;;;22.50;99.90;;;;;;4970059;28;20192;-69
2023/08/16 05:56:12;;;;;;;6.33;5.80;;;22.80;99.90;;;;;;4968609;28;21362;-69
2023/08/16 05:58:38;;;;;;;5.60;5.20;;;22.80;99.90;;;;;;4971909;28;20204;-69
2023/08/16 06:01:03;;;;;;;6.57;6.07;;;22.80;99.90;;;;;;4968389;28;20211;-73
2023/08/16 06:03:29;;;;;;;6.20;5.80;;;22.80;99.90;;;;;;4971883;28;20177;-72
2023/08/16 06:05:54;;;;;;;9.97;6.90;;;22.90;99.90;;;;;;4970713;28;20176;-72
2023/08/16 06:08:20;;;;;;;7.27;6.50;;;23.00;99.90;;;;;;4970693;28;21071;-71
2023/08/16 06:10:45;;;;;;;8.70;7.90;;;22.70;99.90;;;;;;4972398;28;20216;-71
2023/08/16 06:13:11;;;;;;;9.87;8.90;;;22.70;99.90;;;;;;4969887;28;20183;-71
2023/08/16 06:15:36;;;;;;;10.60;9.70;;;22.80;99.90;;;;;;4971699;28;20192;-71
2023/08/16 06:18:02;;;;;;;9.97;9.07;;;23.10;99.90;;;;;;4971554;28;20200;-72
2023/08/16 06:20:27;;;;;;;9.53;8.80;;;23.30;99.90;;;;;;4971492;28;20274;-71
2023/08/16 06:22:53;;;;;;;11.23;10.13;;;23.20;99.90;;;;;;4971389;28;20184;-68
2023/08/16 06:25:19;;;;;;;10.30;9.37;;;23.10;99.90;;;;;;4965854;28;20186;-69
2023/08/16 06:27:44;;;;;;;11.10;10.10;;;23.10;99.90;;;;;;4971139;28;20590;-69
2023/08/16 06:30:11;;;;;;;12.30;9.13;;;23.10;99.90;;;;;;4971105;28;20677;-68
2023/08/16 06:32:36;;;;;;;10.87;9.77;;;22.90;99.90;;;;;;4968236;28;20189;-70
2023/08/16 06:35:05;;;;;;;10.03;9.23;;;22.60;99.90;;;;;;4970921;28;20427;-69
2023/08/16 06:37:31;;;;;;;9.67;8.87;;;22.40;99.90;;;;;;4971683;28;20195;-69
2023/08/16 06:39:56;;;;;;;8.90;8.20;;;22.40;99.90;;;;;;4972697;28;20999;-70
2023/08/16 06:42:22;;;;;;;10.07;9.17;;;22.40;99.90;;;;;;4967926;28;20440;-70
2023/08/16 06:44:47;;;;;;;9.37;8.57;;;22.70;99.90;;;;;;4967181;28;20195;-73
2023/08/16 06:47:13;;;;;;;9.13;8.43;;;22.80;99.90;;;;;;4970855;28;20560;-74
2023/08/16 06:49:38;;;;;;;9.63;8.73;;;22.90;99.90;;;;;;4971053;28;20287;-73
2023/08/16 06:52:04;;;;;;;9.10;8.30;;;22.90;99.90;;;;;;4969329;28;20267;-73
2023/08/16 06:54:29;;;;;;;8.80;8.10;;;23.10;99.90;;;;;;4971076;28;20188;-74
2023/08/16 06:56:57;;;;;;;9.10;8.40;;;23.60;99.90;;;;;;4970199;28;20646;-73
2023/08/16 06:59:28;;;;;;;9.53;8.60;;;23.90;99.90;;;;;;4971493;28;20215;-73
2023/08/16 07:01:53;;;;;;;10.17;9.37;;;24.00;99.90;;;;;;4970867;28;20439;-73
2023/08/16 07:04:19;;;;;;;9.63;8.70;;;24.10;99.90;;;;;;4973043;28;20416;-73
2023/08/16 07:06:44;;;;;;;10.60;7.97;;;24.20;99.90;;;;;;4971475;28;20196;-73
2023/08/16 07:09:10;;;;;;;8.90;8.03;;;24.60;99.90;;;;;;4971290;28;20204;-73
2023/08/16 07:11:35;;;;;;;10.30;8.20;;;24.80;99.90;;;;;;4971945;28;20188;-74
2023/08/16 07:14:01;;;;;;;8.53;7.67;;;24.80;99.90;;;;;;4971159;28;20203;-76
2023/08/16 07:16:26;;;;;;;9.43;7.13;;;24.90;99.90;;;;;;4970746;28;20692;-73
2023/08/16 07:18:52;;;;;;;8.03;7.23;;;25.20;99.90;;;;;;4971252;28;20333;-73
2023/08/16 07:21:17;;;;;;;8.03;7.33;;;25.30;99.90;;;;;;4954727;28;20219;-75
2023/08/16 07:23:44;;;;;;;8.40;7.70;;;25.40;99.90;;;;;;4970435;28;20269;-75
2023/08/16 07:26:10;;;;;;;7.27;6.60;;;25.70;99.90;;;;;;4971943;28;20280;-74
2023/08/16 07:28:36;;;;;;;8.90;7.60;;;26.20;99.90;;;;;;4953980;28;20431;-73
2023/08/16 07:31:01;;;;;;;7.43;6.83;;;26.50;99.90;;;;;;4965513;28;20635;-73
2023/08/16 07:33:30;;;;;;;6.83;6.40;;;26.70;99.90;;;;;;4963783;28;20172;-74
2023/08/16 07:36:01;;;;;;;7.20;6.60;;;27.00;99.90;;;;;;4970180;28;20767;-74
2023/08/16 07:38:28;;;;;;;7.07;6.57;;;27.10;99.90;;;;;;4965720;28;20884;-73
2023/08/16 07:40:54;;;;;;;8.00;7.33;;;27.00;99.90;;;;;;4971071;28;20844;-73
2023/08/16 07:43:19;;;;;;;8.27;7.57;;;27.00;99.90;;;;;;4965315;28;20446;-73
2023/08/16 07:45:45;;;;;;;7.60;6.70;;;27.00;99.90;;;;;;4969583;28;20430;-73
2023/08/16 07:48:10;;;;;;;7.03;6.30;;;27.10;99.90;;;;;;4968813;28;20180;-75
2023/08/16 07:50:36;;;;;;;7.90;7.30;;;27.40;99.90;;;;;;4971475;28;20196;-74
2023/08/16 07:53:02;;;;;;;8.40;7.60;;;27.70;99.90;;;;;;4964639;28;20177;-74
2023/08/16 07:55:32;;;;;;;8.63;7.93;;;27.70;99.90;;;;;;4970052;28;20263;-74
2023/08/16 07:57:58;;;;;;;7.90;6.97;;;27.90;99.90;;;;;;4971692;28;20525;-75
2023/08/16 08:00:23;;;;;;;7.90;7.07;;;28.10;99.90;;;;;;4971769;28;20478;-75
2023/08/16 08:02:49;;;;;;;7.90;7.10;;;28.40;99.90;;;;;;4967878;28;20173;-75
2023/08/16 08:05:15;;;;;;;7.27;6.77;;;28.30;99.90;;;;;;4969564;28;20203;-75
2023/08/16 08:07:41;;;;;;;7.50;6.90;;;28.50;99.90;;;;;;4974350;28;20180;-75
2023/08/16 08:10:07;;;;;;;8.80;8.03;;;28.80;99.90;;;;;;4958129;28;20452;-72
2023/08/16 08:12:33;;;;;;;7.73;7.03;;;28.90;99.90;;;;;;4969327;28;20185;-73
2023/08/16 08:14:58;;;;;;;9.20;8.50;;;28.90;99.90;;;;;;4974215;28;20418;-72
2023/08/16 08:17:24;;;;;;;8.80;8.00;;;29.00;99.90;;;;;;4974352;28;20172;-72
2023/08/16 08:19:50;;;;;;;7.00;6.40;;;29.30;99.90;;;;;;4975195;28;20204;-75
2023/08/16 08:22:15;;;;;;;8.17;7.47;;;29.30;99.90;;;;;;4973178;28;20443;-76
2023/08/16 08:24:41;;;;;;;9.00;7.50;;;29.40;99.90;;;;;;4975991;28;20176;-76
2023/08/16 08:27:06;;;;;;;7.47;6.97;;;29.50;99.90;;;;;;4977300;28;20188;-76
2023/08/16 08:29:32;;;;;;;8.50;7.67;;;29.80;99.90;;;;;;4975002;28;20569;-76
2023/08/16 08:31:57;;;;;;;8.83;8.17;;;30.20;99.90;;;;;;4973156;28;20204;-74
2023/08/16 08:34:24;;;;;;;8.37;7.47;;;30.50;99.90;;;;;;4973101;28;20555;-74
2023/08/16 08:36:49;;;;;;;8.00;7.40;;;30.70;99.90;;;;;;4970729;28;20209;-74
2023/08/16 08:39:18;;;;;;;8.37;7.60;;;30.90;99.90;;;;;;4976423;28;20522;-73
2023/08/16 08:41:47;;;;;;;6.90;6.40;;;31.20;99.90;;;;;;4972483;28;20187;-74
2023/08/16 08:44:14;;;;;;;8.00;7.43;;;31.50;99.90;;;;;;4974573;28;20510;-74
2023/08/16 08:46:41;;;;;;;8.50;7.70;;;31.60;99.90;;;;;;4952483;28;20443;-71
2023/08/16 08:49:07;;;;;;;8.87;8.07;;;31.80;99.90;;;;;;4971426;28;20554;-71
2023/08/16 08:51:35;;;;;;;7.97;7.20;;;32.10;99.90;;;;;;4970815;28;20447;-72
2023/08/16 08:54:00;;;;;;;8.70;7.90;;;32.30;99.90;;;;;;4973651;28;20443;-72
2023/08/16 08:56:27;;;;;;;8.00;7.20;;;32.40;99.90;;;;;;4971515;28;20466;-73
2023/08/16 08:58:56;;;;;;;8.30;7.70;;;32.30;99.90;;;;;;4972308;28;20700;-72
2023/08/16 09:01:23;;;;;;;8.53;7.73;;;31.70;99.90;;;;;;4971054;28;20471;-72
2023/08/16 09:03:52;;;;;;;6.93;6.43;;;31.90;99.90;;;;;;4972265;28;20442;-72
2023/08/16 09:06:18;;;;;;;8.40;7.17;;;32.20;99.90;;;;;;4974213;28;20431;-73
2023/08/16 09:08:45;;;;;;;7.60;7.07;;;32.50;99.90;;;;;;4971643;28;20818;-72
2023/08/16 09:11:13;;;;;;;8.20;7.53;;;32.00;99.90;;;;;;4974763;28;20435;-72
2023/08/16 09:13:39;;;;;;;7.70;6.93;;;32.30;99.90;;;;;;4974739;28;20785;-72
2023/08/16 09:16:04;;;;;;;7.77;6.93;;;32.60;99.90;;;;;;4970712;28;20444;-73
2023/08/16 09:18:30;;;;;;;7.30;6.77;;;33.00;99.90;;;;;;4972667;28;20216;-71
2023/08/16 09:20:59;;;;;;;7.30;6.80;;;33.50;99.90;;;;;;4972237;28;20204;-72
2023/08/16 09:23:25;;;;;;;8.03;7.03;;;33.30;99.90;;;;;;4973519;28;20444;-71
2023/08/16 09:25:51;;;;;;;6.67;6.07;;;33.30;99.90;;;;;;4973001;28;20442;-72
2023/08/16 09:28:16;;;;;;;6.50;6.10;;;33.20;99.90;;;;;;4971694;28;20176;-72
2023/08/16 09:30:42;;;;;;;7.60;6.93;;;33.00;99.90;;;;;;4973632;28;20458;-72
2023/08/16 09:33:12;;;;;;;7.03;6.43;;;33.80;99.90;;;;;;4966796;28;20234;-73
2023/08/16 09:35:43;;;;;;;7.93;7.30;;;33.70;99.90;;;;;;4974826;28;20419;-72
2023/08/16 09:38:09;;;;;;;7.33;6.77;;;32.80;99.90;;;;;;4970620;28;20547;-75
2023/08/16 09:40:35;;;;;;;7.70;6.93;;;33.10;99.90;;;;;;4974287;28;20447;-73
2023/08/16 09:43:01;;;;;;;6.20;5.70;;;33.30;99.90;;;;;;4966159;28;20519;-72
2023/08/16 09:45:32;;;;;;;6.93;6.37;;;33.50;99.90;;;;;;4974048;28;20526;-72
2023/08/16 09:48:00;;;;;;;6.60;6.07;;;32.50;99.90;;;;;;4971887;28;20448;-71
2023/08/16 09:50:33;;;;;;;7.40;6.40;;;32.20;99.90;;;;;;4972853;28;20995;-71
2023/08/16 09:53:01;;;;;;;7.60;6.80;;;31.80;99.90;;;;;;4970568;28;20442;-72
2023/08/16 09:55:30;;;;;;;6.43;5.93;;;31.80;99.90;;;;;;4970149;28;20442;-72
2023/08/16 09:57:59;;;;;;;8.20;7.60;;;32.20;99.90;;;;;;4969542;28;20526;-72
2023/08/16 10:00:27;;;;;;;7.90;7.20;;;33.30;99.90;;;;;;4965201;28;20518;-72
2023/08/16 10:02:53;;;;;;;7.63;6.90;;;34.50;99.90;;;;;;4973113;28;20960;-73
2023/08/16 10:05:19;;;;;;;6.90;6.20;;;35.20;99.90;;;;;;4972558;28;20438;-72
2023/08/16 10:07:47;;;;;;;7.13;6.50;;;35.90;98.30;;;;;;4972906;28;20440;-72
2023/08/16 10:10:14;;;;;;;8.23;7.30;;;36.70;96.60;;;;;;4970776;28;21014;-73
2023/08/16 10:12:40;;;;;;;7.10;5.90;;;38.10;94.60;;;;;;4974082;28;20760;-72
2023/08/16 10:15:07;;;;;;;7.00;6.30;;;38.80;91.70;;;;;;4974304;28;20424;-72
2023/08/16 10:17:35;;;;;;;7.27;6.67;;;38.30;91.50;;;;;;4972983;28;20944;-74
2023/08/16 10:20:06;;;;;;;7.40;6.80;;;38.10;91.30;;;;;;4969871;28;20510;-71
2023/08/16 10:22:38;;;;;;;6.57;6.03;;;37.40;91.50;;;;;;4972263;28;20457;-71
2023/08/16 10:25:16;;;;;;;8.83;7.20;;;37.10;91.90;;;;;;4972768;28;20436;-69
2023/08/16 10:27:44;;;;;;;8.23;7.70;;;37.40;92.30;;;;;;4972327;28;20431;-69
2023/08/16 10:30:20;;;;;;;7.17;6.57;;;38.50;90.50;;;;;;4967199;28;20486;-70
2023/08/16 10:32:47;;;;;;;7.40;6.83;;;38.20;89.20;;;;;;4972166;28;20435;-70
2023/08/16 10:35:14;;;;;;;7.60;7.00;;;37.80;90.40;;;;;;4970955;28;20439;-70
2023/08/16 10:37:40;;;;;;;8.37;6.50;;;39.60;88.50;;;;;;4971852;28;20450;-70
2023/08/16 10:40:16;;;;;;;6.80;6.27;;;41.40;84.10;;;;;;4968109;28;20464;-71
2023/08/16 10:43:08;;;;;;;6.33;5.70;;;40.00;81.70;;;;;;4968662;28;20949;-70
2023/08/16 10:45:34;;;;;;;8.97;8.17;;;41.00;80.30;;;;;;4964771;28;20469;-70
2023/08/16 10:48:17;;;;;;;7.57;7.07;;;42.30;76.20;;;;;;4971151;28;21118;-70
2023/08/16 10:50:44;;;;;;;7.57;6.87;;;42.50;74.70;;;;;;4967386;28;20848;-71
2023/08/16 10:53:17;;;;;;;11.63;10.53;;;42.80;72.80;;;;;;4963815;28;20456;-70
2023/08/16 10:55:51;;;;;;;8.00;7.17;;;41.90;71.50;;;;;;4973063;28;20861;-70
2023/08/16 10:58:22;;;;;;;7.80;7.20;;;41.00;73.40;;;;;;4965253;28;20572;-70
2023/08/16 11:00:57;;;;;;;8.53;7.83;;;41.80;72.10;;;;;;4973274;28;20945;-70
2023/08/16 11:03:33;;;;;;;8.80;6.97;;;42.40;70.30;;;;;;4973324;28;20975;-70
2023/08/16 11:06:00;;;;;;;10.50;7.80;;;43.10;69.00;;;;;;4973529;28;20411;-70
2023/08/16 11:08:30;;;;;;;15.23;9.53;;;43.40;67.30;;;;;;4973172;28;20542;-70
2023/08/16 11:10:57;;;;;;;7.10;6.50;;;43.80;67.10;;;;;;5023014;23;20492;-67
2023/08/16 11:13:23;;;;;;;6.63;6.23;;;43.20;66.00;;;;;;5012027;28;20429;-67
2023/08/16 11:15:48;;;;;;;8.10;6.93;;;43.90;64.50;;;;;;5021137;28;20425;-67
2023/08/16 11:18:14;;;;;;;5.77;5.37;;;43.00;65.10;;;;;;5011352;28;20207;-66
2023/08/16 11:20:41;;;;;;;8.67;7.90;;;43.70;62.90;;;;;;5020278;28;20252;-67
2023/08/16 11:23:06;;;;;;;7.70;6.30;;;44.70;62.00;;;;;;5019415;28;20170;-67
2023/08/16 11:25:33;;;;;;;8.83;8.20;;;44.70;59.60;;;;;;5028395;28;20495;-67
2023/08/16 11:28:03;;;;;;;8.67;7.90;;;45.20;58.90;;;;;;5016709;28;20527;-67
2023/08/16 11:30:32;;;;;;;7.20;6.57;;;46.20;57.50;;;;;;5023887;28;20977;-67
2023/08/16 11:32:59;;;;;;;6.63;6.10;;;45.90;56.90;;;;;;5020681;28;20432;-67
2023/08/16 11:35:24;;;;;;;7.90;6.67;;;46.20;56.20;;;;;;5017567;28;20427;-67
2023/08/16 11:37:50;;;;;;;7.50;6.90;;;45.60;56.10;;;;;;5031498;28;20941;-67
2023/08/16 11:40:21;;;;;;;6.73;6.13;;;45.80;55.60;;;;;;5026576;28;20209;-66
2023/08/16 11:42:53;;;;;;;7.93;7.33;;;46.50;54.80;;;;;;5024679;28;20188;-67
2023/08/16 11:45:21;;;;;;;9.50;8.60;;;46.60;54.50;;;;;;5030023;28;20437;-67
2023/08/16 11:47:51;;;;;;;12.57;11.27;;;47.50;53.90;;;;;;5034620;28;20486;-67
2023/08/16 11:50:17;;;;;;;7.40;6.80;;;48.20;52.70;;;;;;5025897;28;20453;-67
2023/08/16 11:52:42;;;;;;;8.47;7.63;;;49.20;49.20;;;;;;5024499;28;20439;-67
2023/08/16 11:55:09;;;;;;;6.37;5.80;;;48.30;48.50;;;;;;5029478;28;20170;-67
2023/08/16 11:57:45;;;;;;;7.10;6.50;;;47.00;49.60;;;;;;5025344;28;20240;-67
2023/08/16 12:00:14;;;;;;;7.67;7.10;;;47.60;48.80;;;;;;5027925;28;20461;-67
2023/08/16 12:02:42;;;;;;;6.13;5.73;;;48.60;48.10;;;;;;5026951;28;20429;-67
2023/08/16 12:05:09;;;;;;;7.00;6.60;;;49.00;46.80;;;;;;5027085;28;20987;-67
2023/08/16 12:07:51;;;;;;;7.00;6.40;;;47.10;46.80;;;;;;5035119;28;20925;-67
2023/08/16 12:10:27;;;;;;;8.00;7.43;;;47.70;48.00;;;;;;5031274;28;20564;-67
2023/08/16 12:12:55;;;;;;;8.20;7.60;;;48.30;47.90;;;;;;5026793;28;20439;-67
2023/08/16 12:15:25;;;;;;;7.57;7.07;;;48.10;47.60;;;;;;5033301;28;20437;-67
2023/08/16 12:17:52;;;;;;;7.27;6.87;;;48.40;47.30;;;;;;5032027;28;20429;-67
2023/08/16 12:20:18;;;;;;;7.83;7.30;;;48.40;47.40;;;;;;5024707;28;20536;-67
2023/08/16 12:22:45;;;;;;;7.53;7.00;;;48.20;47.10;;;;;;5032128;28;20870;-67
2023/08/16 12:25:10;;;;;;;6.70;6.00;;;48.30;46.40;;;;;;5022922;28;20181;-67
2023/08/16 12:27:36;;;;;;;5.87;5.57;;;49.10;45.30;;;;;;5030399;28;20816;-67
2023/08/16 12:30:02;;;;;;;6.90;6.43;;;49.40;44.40;;;;;;5027182;28;20198;-67
2023/08/16 12:32:27;;;;;;;7.40;6.70;;;50.20;43.60;;;;;;5024263;28;20182;-67
2023/08/16 12:34:53;;;;;;;8.07;7.27;;;49.90;43.60;;;;;;5032849;28;20857;-67
2023/08/16 12:37:18;;;;;;;7.43;6.83;;;50.40;44.20;;;;;;5028543;28;20182;-67
2023/08/16 12:39:44;;;;;;;7.07;6.43;;;50.00;44.30;;;;;;5027538;28;20214;-67
2023/08/16 12:42:09;;;;;;;6.93;6.30;;;50.00;44.00;;;;;;5018210;28;20186;-67